Time;durP1;ratioP1;P1;durP2;ratioP2;P2;SDS_P1;SDS_P2;PMS_P1;PMS_P2;Temp;Humidity;BMP_temperature;BMP_pressure;BME280_temperature;BME280_humidity;BME280_pressure;Samples;Min_cycle;Max_cycle;Signal;HPM_P1;HPM_P2
2023/10/07 00:02:13;;;;;;;12.20;2.90;;;16.50;99.90;;;;;;5051267;28;20169;-74
2023/10/07 00:04:40;;;;;;;10.40;3.28;;;16.30;99.90;;;;;;5051896;28;20176;-75
2023/10/07 00:07:15;;;;;;;9.40;2.85;;;16.30;99.90;;;;;;5051094;28;20177;-74
2023/10/07 00:09:49;;;;;;;12.18;3.05;;;16.40;99.90;;;;;;5050780;28;20177;-74
2023/10/07 00:12:18;;;;;;;11.20;3.05;;;16.30;99.90;;;;;;5050842;28;20169;-74
2023/10/07 00:14:44;;;;;;;7.28;2.70;;;;;;;;;;5050811;28;20181;-74
2023/10/07 00:17:17;;;;;;;12.80;3.10;;;16.20;99.90;;;;;;5050767;28;20172;-74
2023/10/07 00:19:46;;;;;;;11.55;2.88;;;16.50;99.90;;;;;;5050798;28;20190;-74
2023/10/07 00:22:19;;;;;;;6.78;3.20;;;16.30;99.90;;;;;;5050825;28;20172;-74
2023/10/07 00:24:48;;;;;;;7.90;2.83;;;16.20;99.90;;;;;;5050703;28;20179;-74
2023/10/07 00:27:26;;;;;;;6.90;2.53;;;16.30;99.90;;;;;;5050486;28;20213;-75
2023/10/07 00:29:58;;;;;;;8.07;2.60;;;16.20;99.90;;;;;;5050623;28;20172;-74
2023/10/07 00:32:28;;;;;;;9.60;2.25;;;16.10;99.90;;;;;;5050703;28;20256;-74
2023/10/07 00:35:00;;;;;;;9.85;2.80;;;16.20;99.90;;;;;;5050574;28;20184;-74
2023/10/07 00:37:29;;;;;;;10.65;2.97;;;16.10;99.90;;;;;;5050584;28;20471;-74
2023/10/07 00:40:00;;;;;;;5.25;2.70;;;16.30;99.90;;;;;;5050500;28;20548;-74
2023/10/07 00:42:26;;;;;;;6.20;3.17;;;16.30;99.90;;;;;;5050724;28;20177;-74
2023/10/07 00:44:53;;;;;;;5.22;2.50;;;16.20;99.90;;;;;;5050504;28;20209;-74
2023/10/07 00:47:19;;;;;;;6.93;2.95;;;15.90;99.90;;;;;;5050578;28;20247;-74
2023/10/07 00:49:54;;;;;;;11.48;2.72;;;16.10;99.90;;;;;;5050571;28;20637;-74
2023/10/07 00:52:29;;;;;;;5.75;2.53;;;16.20;99.90;;;;;;5050533;28;20169;-74
2023/10/07 01:05:38;;;;;;;10.48;2.60;;;15.90;99.90;;;;;;5054153;28;20196;-74
2023/10/07 01:08:06;;;;;;;8.77;2.33;;;16.00;99.90;;;;;;5054286;28;20632;-74
2023/10/07 01:10:31;;;;;;;7.35;2.13;;;16.00;99.90;;;;;;5054174;28;20173;-74
2023/10/07 01:13:03;;;;;;;5.55;2.10;;;15.90;99.90;;;;;;5053914;28;20172;-74
2023/10/07 01:15:30;;;;;;;10.73;1.90;;;16.00;99.90;;;;;;5054129;28;20181;-74
2023/10/07 01:18:04;;;;;;;6.18;2.08;;;18.10;99.90;;;;;;5054152;28;20184;-74
2023/10/07 01:21:14;;;;;;;4.80;1.98;;;15.20;99.90;;;;;;5054047;28;20173;-73
2023/10/07 01:23:24;;;;;;;4.55;2.10;;;15.80;99.90;;;;;;5050476;28;20193;-74
2023/10/07 01:25:50;;;;;;;7.53;2.38;;;15.90;99.90;;;;;;5053774;28;20256;-73
2023/10/07 01:28:20;;;;;;;3.90;2.28;;;15.90;99.90;;;;;;5053493;28;20764;-74
2023/10/07 01:31:08;;;;;;;4.18;1.88;;;15.60;99.90;;;;;;5053947;28;20181;-74
2023/10/07 01:33:46;;;;;;;5.18;2.17;;;15.70;99.90;;;;;;5053685;28;20238;-74
2023/10/07 01:36:18;;;;;;;6.00;2.13;;;15.80;99.90;;;;;;5051361;28;20501;-74
2023/10/07 01:38:48;;;;;;;7.28;2.20;;;15.80;99.90;;;;;;5042259;28;20192;-74
2023/10/07 01:41:18;;;;;;;6.75;2.30;;;15.80;99.90;;;;;;5053524;28;20554;-74
2023/10/07 01:43:51;;;;;;;5.13;1.95;;;;;;;;;;5038660;28;20177;-74
2023/10/07 01:46:19;;;;;;;5.45;2.17;;;;;;;;;;5033201;28;20221;-74
2023/10/07 01:48:55;;;;;;;5.28;1.90;;;15.90;99.90;;;;;;5033347;28;20300;-74
2023/10/07 01:51:23;;;;;;;4.43;1.90;;;15.60;99.90;;;;;;5033270;28;20193;-74
2023/10/07 01:53:49;;;;;;;9.35;1.75;;;15.70;99.90;;;;;;5033205;28;20181;-74
2023/10/07 01:56:15;;;;;;;8.60;2.60;;;;;;;;;;5050469;28;20176;-74
2023/10/07 01:58:41;;;;;;;5.82;2.40;;;15.70;99.90;;;;;;5052775;28;20173;-74
2023/10/07 02:01:07;;;;;;;7.90;1.90;;;;;;;;;;5053112;28;20608;-75
2023/10/07 02:03:33;;;;;;;7.13;2.60;;;15.60;99.90;;;;;;5046827;28;20237;-75
2023/10/07 02:05:59;;;;;;;12.18;2.92;;;15.60;99.90;;;;;;5032964;28;20706;-74
2023/10/07 02:08:25;;;;;;;4.28;2.40;;;15.60;99.90;;;;;;5032075;28;20241;-74
2023/10/07 02:10:58;;;;;;;6.88;2.55;;;15.80;99.90;;;;;;5031758;28;20178;-74
2023/10/07 02:13:27;;;;;;;4.70;2.40;;;15.80;99.90;;;;;;5031494;28;20174;-74
2023/10/07 02:15:57;;;;;;;5.05;2.03;;;14.30;99.90;;;;;;5033034;28;20246;-74
2023/10/07 02:18:26;;;;;;;7.72;2.60;;;15.70;99.90;;;;;;5032877;28;20166;-74
2023/10/07 02:21:04;;;;;;;10.82;2.63;;;15.50;99.90;;;;;;5031709;28;20178;-74
2023/10/07 02:26:19;;;;;;;6.43;2.53;;;15.60;99.90;;;;;;5032614;28;20303;-74
2023/10/07 02:28:50;;;;;;;9.85;2.70;;;15.50;99.90;;;;;;5032432;28;20219;-74
2023/10/07 02:31:19;;;;;;;8.75;2.55;;;15.40;99.90;;;;;;5031364;28;20228;-74
2023/10/07 02:33:54;;;;;;;8.50;2.83;;;15.40;99.90;;;;;;5032679;28;20181;-74
2023/10/07 02:36:28;;;;;;;5.82;2.63;;;15.60;99.90;;;;;;5032403;28;20611;-74
2023/10/07 02:39:02;;;;;;;4.55;2.38;;;15.70;99.90;;;;;;5031176;28;20180;-74
2023/10/07 02:41:31;;;;;;;6.80;3.10;;;15.40;99.90;;;;;;5032407;28;20173;-74
2023/10/07 02:44:03;;;;;;;6.22;3.00;;;15.30;99.90;;;;;;5032363;28;20209;-74
2023/10/07 02:46:34;;;;;;;7.28;2.78;;;15.60;99.90;;;;;;5032130;28;20224;-74
2023/10/07 02:49:09;;;;;;;7.00;2.75;;;15.40;99.90;;;;;;5032204;28;20767;-74
2023/10/07 02:51:55;;;;;;;7.25;2.92;;;15.30;99.90;;;;;;5032218;28;20644;-74
2023/10/07 02:54:21;;;;;;;8.32;2.65;;;15.50;99.90;;;;;;5032327;28;20695;-74
2023/10/07 02:57:22;;;;;;;9.23;2.58;;;15.50;99.90;;;;;;5032078;28;20166;-74
2023/10/07 02:59:50;;;;;;;8.20;3.35;;;15.30;99.90;;;;;;5029824;28;20269;-74
2023/10/07 03:04:58;;;;;;;7.78;3.10;;;15.30;99.90;;;;;;5032028;28;20503;-74
2023/10/07 03:07:25;;;;;;;7.55;3.45;;;;;;;;;;5030600;28;20244;-74
2023/10/07 03:12:36;;;;;;;6.88;2.72;;;15.20;99.90;;;;;;5033912;28;20272;-74
2023/10/07 03:15:20;;;;;;;5.95;2.45;;;;;;;;;;5033784;28;20197;-74
2023/10/07 03:17:46;;;;;;;6.68;3.20;;;;;;;;;;5033107;28;20188;-74
2023/10/07 03:28:19;;;;;;;6.47;2.90;;;;;;;;;;5031894;28;20213;-74
2023/10/07 03:30:51;;;;;;;5.50;2.78;;;15.40;99.90;;;;;;5031676;28;20213;-74
2023/10/07 03:33:17;;;;;;;5.03;2.70;;;;;;;;;;5031471;28;20181;-74
2023/10/07 03:38:25;;;;;;;7.65;2.60;;;;;;;;;;5031429;28;20179;-74
2023/10/07 03:40:54;;;;;;;5.68;2.75;;;;;;;;;;5031298;28;20178;-74
2023/10/07 03:43:20;;;;;;;9.15;2.60;;;;;;;;;;5031318;28;20166;-74
2023/10/07 03:45:46;;;;;;;6.95;2.95;;;;;;;;;;5029833;28;20696;-74
2023/10/07 03:51:12;;;;;;;6.85;2.63;;;15.20;99.90;;;;;;5031426;28;20194;-74
2023/10/07 03:53:47;;;;;;;9.15;3.28;;;14.90;99.90;;;;;;5031149;28;20181;-74
2023/10/07 03:56:16;;;;;;;5.88;2.80;;;14.90;99.90;;;;;;5031215;28;20176;-74
2023/10/07 03:58:43;;;;;;;5.47;2.67;;;;;;;;;;5031119;28;20192;-74
2023/10/07 04:01:16;;;;;;;8.20;3.13;;;14.80;99.90;;;;;;5031069;28;20663;-74
2023/10/07 04:03:52;;;;;;;6.22;2.80;;;14.80;99.90;;;;;;5031195;28;20644;-74
2023/10/07 04:06:19;;;;;;;6.68;2.67;;;14.80;99.90;;;;;;5031786;28;20212;-74
2023/10/07 04:08:56;;;;;;;7.68;2.90;;;14.80;99.90;;;;;;5031017;28;20244;-74
2023/10/07 04:11:28;;;;;;;7.32;3.08;;;14.60;99.90;;;;;;5030956;28;20164;-74
2023/10/07 04:13:55;;;;;;;5.13;3.00;;;14.70;99.90;;;;;;5031020;28;20629;-74
2023/10/07 04:16:24;;;;;;;10.75;3.15;;;;;;;;;;5029620;28;20227;-74
2023/10/07 04:19:14;;;;;;;11.25;3.17;;;14.80;99.90;;;;;;5031050;28;20197;-74
2023/10/07 04:21:40;;;;;;;7.10;2.97;;;;;;;;;;5030821;28;20662;-74
2023/10/07 04:24:10;;;;;;;5.68;2.80;;;14.80;99.90;;;;;;5029604;28;20690;-74
2023/10/07 04:26:39;;;;;;;5.57;2.92;;;14.60;99.90;;;;;;5030915;28;20174;-74
2023/10/07 04:29:14;;;;;;;7.85;3.33;;;14.50;99.90;;;;;;5030431;28;20271;-74
2023/10/07 04:31:45;;;;;;;5.93;2.78;;;14.70;99.90;;;;;;5031751;28;20894;-74
2023/10/07 04:34:18;;;;;;;6.68;2.83;;;14.70;99.90;;;;;;5034873;28;20186;-74
2023/10/07 04:37:11;;;;;;;10.05;3.10;;;14.60;99.90;;;;;;5034901;28;20170;-75
2023/10/07 04:39:39;;;;;;;6.95;2.90;;;14.60;99.90;;;;;;5040375;28;20184;-74
2023/10/07 04:42:06;;;;;;;6.13;2.85;;;14.80;99.90;;;;;;5054564;28;20193;-74
2023/10/07 04:52:29;;;;;;;6.20;3.00;;;14.50;99.90;;;;;;5034527;28;20170;-74
2023/10/07 04:54:59;;;;;;;8.23;3.17;;;14.50;99.90;;;;;;5034403;28;20268;-74
2023/10/07 05:02:59;;;;;;;5.63;2.88;;;14.20;99.90;;;;;;5054485;28;20181;-74
2023/10/07 05:05:30;;;;;;;6.25;2.97;;;14.20;99.90;;;;;;5054179;28;20161;-74
2023/10/07 05:08:16;;;;;;;4.38;2.70;;;14.50;99.90;;;;;;5053772;28;20695;-74
2023/10/07 05:10:42;;;;;;;6.93;2.95;;;;;;;;;;5053894;28;20191;-74
2023/10/07 05:13:09;;;;;;;8.65;3.05;;;14.30;99.90;;;;;;5053879;28;20181;-74
2023/10/07 05:15:38;;;;;;;6.50;3.13;;;17.60;99.90;;;;;;5053926;28;20165;-74
2023/10/07 05:18:16;;;;;;;7.35;3.05;;;14.40;99.90;;;;;;5053849;28;20162;-74
2023/10/07 05:20:46;;;;;;;8.85;3.08;;;14.40;99.90;;;;;;5053770;28;20178;-74
2023/10/07 05:23:14;;;;;;;6.07;2.95;;;;;;;;;;5053639;28;20552;-74
2023/10/07 05:25:48;;;;;;;5.68;3.10;;;14.80;99.90;;;;;;5053678;28;20173;-74
2023/10/07 05:28:27;;;;;;;8.52;3.28;;;15.00;99.90;;;;;;5053471;28;20793;-74
2023/10/07 05:30:52;;;;;;;5.18;2.78;;;14.80;99.90;;;;;;5053760;28;20161;-73
2023/10/07 05:33:26;;;;;;;7.32;2.85;;;14.70;99.90;;;;;;5042471;28;20178;-73
2023/10/07 05:35:59;;;;;;;5.03;2.70;;;15.10;99.90;;;;;;5033549;28;20647;-74
2023/10/07 05:38:25;;;;;;;4.47;2.70;;;15.10;99.90;;;;;;5033619;28;20170;-74
2023/10/07 05:41:00;;;;;;;8.38;2.88;;;14.90;99.90;;;;;;5033595;28;20170;-74
2023/10/07 05:43:26;;;;;;;8.88;2.80;;;15.10;99.90;;;;;;5032337;28;20235;-73
2023/10/07 05:45:52;;;;;;;8.07;2.80;;;15.10;99.90;;;;;;5033085;28;20704;-74
2023/10/07 05:48:18;;;;;;;8.98;3.25;;;;;;;;;;5033251;28;20197;-74
2023/10/07 05:50:44;;;;;;;5.55;3.00;;;15.30;99.90;;;;;;5033190;28;20629;-74
2023/10/07 05:53:10;;;;;;;8.13;3.05;;;15.40;99.90;;;;;;5033532;28;20214;-74
2023/10/07 05:55:36;;;;;;;8.18;3.25;;;15.30;99.90;;;;;;5033226;28;20212;-74
2023/10/07 05:58:04;;;;;;;6.25;3.05;;;15.60;99.90;;;;;;5033234;28;20178;-74
2023/10/07 06:00:31;;;;;;;10.00;3.45;;;15.70;99.90;;;;;;5031772;28;20189;-74
2023/10/07 06:02:59;;;;;;;7.13;3.13;;;15.50;99.90;;;;;;5033418;28;20196;-74
2023/10/07 06:05:27;;;;;;;8.18;3.65;;;;;;;;;;5033113;28;20174;-74
2023/10/07 06:07:58;;;;;;;7.40;3.20;;;15.30;99.90;;;;;;5032780;28;20226;-73
2023/10/07 06:10:24;;;;;;;6.93;3.95;;;;;;;;;;5033032;28;20574;-74
2023/10/07 06:12:55;;;;;;;6.93;3.30;;;15.60;99.90;;;;;;5032950;28;20312;-73
2023/10/07 06:15:24;;;;;;;9.23;3.55;;;15.70;99.90;;;;;;5032991;28;20298;-74
2023/10/07 06:17:51;;;;;;;8.02;3.67;;;15.90;99.90;;;;;;5032606;28;20181;-73
2023/10/07 06:20:26;;;;;;;8.93;3.72;;;15.50;99.90;;;;;;5032845;28;20177;-74
2023/10/07 06:22:56;;;;;;;7.05;3.35;;;15.50;99.90;;;;;;5032826;28;20234;-72
2023/10/07 06:25:30;;;;;;;10.32;3.70;;;15.40;99.90;;;;;;5032580;28;20185;-75
2023/10/07 06:27:59;;;;;;;7.95;3.58;;;15.60;99.90;;;;;;5032322;28;20593;-76
2023/10/07 06:30:26;;;;;;;8.43;2.95;;;15.60;99.90;;;;;;5032593;28;20181;-72
2023/10/07 06:32:55;;;;;;;8.55;3.60;;;15.80;99.90;;;;;;5038301;28;20181;-72
2023/10/07 06:35:25;;;;;;;7.55;3.38;;;15.70;99.90;;;;;;5052415;28;20176;-73
2023/10/07 06:37:57;;;;;;;5.82;3.25;;;15.80;99.90;;;;;;5052435;28;20169;-73
2023/10/07 06:40:28;;;;;;;5.28;2.97;;;;;;;;;;5052218;28;20196;-73
2023/10/07 06:43:01;;;;;;;9.18;3.35;;;15.70;99.90;;;;;;5052380;28;20173;-73
2023/10/07 06:45:35;;;;;;;9.35;3.70;;;15.70;99.90;;;;;;5051852;28;20699;-73
2023/10/07 06:48:09;;;;;;;6.10;3.50;;;15.90;99.90;;;;;;5052043;28;20240;-73
2023/10/07 06:50:35;;;;;;;4.82;3.13;;;15.90;99.90;;;;;;5052053;28;20240;-73
2023/10/07 06:55:44;;;;;;;8.70;3.80;;;;;;;;;;5021540;22;20240;-73
2023/10/07 06:58:11;;;;;;;9.32;3.60;;;;;;;;;;5014323;28;20664;-73
2023/10/07 07:00:49;;;;;;;11.18;3.72;;;16.00;99.90;;;;;;5014586;28;20189;-73
2023/10/07 07:03:18;;;;;;;6.95;3.30;;;16.10;99.90;;;;;;5013333;28;20167;-74
2023/10/07 07:05:48;;;;;;;9.10;3.88;;;15.90;99.90;;;;;;5014078;28;20185;-74
2023/10/07 07:08:14;;;;;;;10.13;4.28;;;;;;;;;;5013822;28;20268;-74
2023/10/07 07:10:41;;;;;;;9.43;3.50;;;16.30;99.90;;;;;;5013408;28;20178;-74
2023/10/07 07:13:15;;;;;;;6.15;3.38;;;16.20;99.90;;;;;;5013362;28;20233;-74
2023/10/07 07:15:47;;;;;;;8.18;3.60;;;16.20;99.90;;;;;;5012470;28;20174;-74
2023/10/07 07:23:24;;;;;;;9.75;3.60;;;16.40;99.90;;;;;;5014471;28;20187;-74
2023/10/07 07:26:06;;;;;;;8.60;3.40;;;16.30;99.90;;;;;;5015314;28;20185;-74
2023/10/07 07:28:35;;;;;;;8.20;3.05;;;16.40;99.90;;;;;;4997117;28;20635;-74
2023/10/07 07:31:10;;;;;;;10.05;4.07;;;16.50;99.90;;;;;;5014786;28;20166;-74
2023/10/07 07:33:37;;;;;;;10.48;3.70;;;16.60;99.90;;;;;;5014031;28;20162;-74
2023/10/07 07:36:07;;;;;;;10.50;3.72;;;;;;;;;;5013737;28;20251;-74
2023/10/07 07:38:43;;;;;;;7.65;3.55;;;16.60;99.90;;;;;;5014476;28;20183;-74
2023/10/07 07:41:10;;;;;;;5.45;3.10;;;16.70;99.90;;;;;;5014486;28;20166;-74
2023/10/07 07:43:37;;;;;;;11.32;3.97;;;16.70;99.90;;;;;;5013870;28;20181;-74
2023/10/07 07:46:26;;;;;;;7.85;3.63;;;16.70;99.90;;;;;;5012841;28;20178;-74
2023/10/07 07:48:53;;;;;;;10.45;3.95;;;16.80;99.90;;;;;;5011449;28;20289;-73
2023/10/07 07:51:24;;;;;;;5.95;3.47;;;16.70;99.90;;;;;;5011641;28;20177;-74
2023/10/07 07:53:50;;;;;;;7.40;3.47;;;;;;;;;;5011787;28;20182;-73
2023/10/07 07:56:16;;;;;;;12.20;4.10;;;;;;;;;;5011468;28;20222;-74
2023/10/07 07:58:48;;;;;;;7.00;3.55;;;;;;;;;;5011561;28;20202;-74
2023/10/07 08:01:21;;;;;;;8.93;3.53;;;16.90;99.90;;;;;;5011533;28;20178;-74
2023/10/07 08:03:47;;;;;;;9.98;3.95;;;17.20;99.90;;;;;;5011827;28;20274;-74
2023/10/07 08:06:19;;;;;;;9.00;4.07;;;;;;;;;;5010939;28;20663;-74
2023/10/07 08:08:49;;;;;;;8.77;3.90;;;17.10;99.90;;;;;;4994523;28;20221;-74
2023/10/07 08:11:17;;;;;;;7.47;3.88;;;17.10;99.90;;;;;;5011396;28;20177;-74
2023/10/07 08:13:45;;;;;;;8.60;3.33;;;;;;;;;;5011691;28;20174;-75
2023/10/07 08:16:15;;;;;;;8.82;3.63;;;17.30;99.90;;;;;;5011822;28;20174;-74
2023/10/07 08:18:41;;;;;;;6.93;3.85;;;17.40;99.90;;;;;;5011651;28;20656;-74
2023/10/07 08:21:10;;;;;;;7.13;3.70;;;;;;;;;;5011167;28;20716;-75
2023/10/07 08:23:40;;;;;;;7.15;3.65;;;17.30;99.90;;;;;;5011252;28;20179;-74
2023/10/07 08:26:10;;;;;;;8.50;3.97;;;17.50;99.90;;;;;;5011272;28;20182;-74
2023/10/07 08:28:45;;;;;;;10.23;4.13;;;17.90;99.90;;;;;;5011298;28;20214;-75
2023/10/07 08:31:18;;;;;;;9.00;4.07;;;;;;;;;;5011448;28;20209;-74
2023/10/07 08:33:53;;;;;;;7.90;3.33;;;17.50;99.90;;;;;;5011391;28;20178;-74
2023/10/07 08:36:27;;;;;;;7.50;3.65;;;17.80;99.90;;;;;;5011280;28;20174;-74
2023/10/07 08:38:53;;;;;;;8.57;4.07;;;17.30;99.90;;;;;;5011313;28;20186;-74
2023/10/07 08:41:26;;;;;;;7.65;3.72;;;;;;;;;;5011256;28;20159;-74
2023/10/07 08:44:04;;;;;;;8.70;4.07;;;17.50;99.90;;;;;;5010961;28;20709;-74
2023/10/07 08:46:39;;;;;;;7.35;3.42;;;18.10;99.90;;;;;;5011474;28;20544;-75
2023/10/07 08:49:13;;;;;;;6.85;4.00;;;18.30;99.90;;;;;;5011207;28;20209;-75
2023/10/07 08:51:43;;;;;;;5.60;3.45;;;18.50;99.90;;;;;;5011412;28;20170;-74
2023/10/07 08:54:25;;;;;;;9.65;4.32;;;18.20;99.90;;;;;;5011032;28;20648;-75
2023/10/07 08:56:57;;;;;;;7.38;3.42;;;18.40;99.90;;;;;;5012018;28;20373;-74
2023/10/07 08:59:33;;;;;;;12.38;4.30;;;18.60;99.90;;;;;;5012457;28;20208;-75
2023/10/07 09:02:00;;;;;;;7.45;3.90;;;18.50;99.90;;;;;;5011181;28;20175;-75
2023/10/07 09:04:32;;;;;;;10.50;4.35;;;18.80;99.90;;;;;;5011003;28;20540;-75
2023/10/07 09:07:11;;;;;;;8.60;4.07;;;18.60;99.90;;;;;;5011181;28;20189;-75
2023/10/07 09:09:39;;;;;;;8.85;4.20;;;18.50;99.90;;;;;;5010844;28;20213;-75
2023/10/07 09:12:14;;;;;;;9.32;3.83;;;19.10;99.90;;;;;;5010984;28;20755;-75
2023/10/07 09:14:51;;;;;;;7.63;4.60;;;18.50;99.90;;;;;;5011070;28;20189;-75
2023/10/07 09:17:24;;;;;;;7.63;4.50;;;18.50;99.90;;;;;;5010961;28;20178;-74
2023/10/07 09:19:55;;;;;;;8.38;3.80;;;18.60;99.90;;;;;;5014171;28;20179;-74
2023/10/07 09:22:53;;;;;;;7.22;3.88;;;18.60;99.90;;;;;;5014313;28;20262;-75
2023/10/07 09:25:19;;;;;;;9.88;4.32;;;18.90;99.90;;;;;;5011462;28;20187;-75
2023/10/07 09:27:55;;;;;;;14.68;4.30;;;18.90;99.90;;;;;;5011846;28;20933;-75
2023/10/07 09:33:14;;;;;;;13.95;4.53;;;19.20;99.90;;;;;;5014308;28;20266;-75
2023/10/07 09:35:49;;;;;;;8.55;4.25;;;19.40;99.90;;;;;;5014000;28;20205;-74
2023/10/07 09:38:34;;;;;;;9.27;4.30;;;19.20;99.90;;;;;;5014175;28;20209;-74
2023/10/07 09:41:12;;;;;;;11.95;4.22;;;19.70;99.90;;;;;;5014034;28;20187;-74
2023/10/07 09:43:47;;;;;;;11.00;5.05;;;19.80;99.90;;;;;;5014108;28;20213;-74
2023/10/07 09:46:24;;;;;;;8.55;4.82;;;19.40;99.90;;;;;;5014424;28;20185;-74
2023/10/07 09:48:51;;;;;;;5.90;3.78;;;19.30;99.90;;;;;;5014174;28;20571;-74
2023/10/07 09:52:03;;;;;;;11.50;4.65;;;19.20;99.90;;;;;;5014337;28;20173;-74
2023/10/07 09:54:47;;;;;;;10.57;4.65;;;19.10;99.90;;;;;;5008306;28;20194;-74
2023/10/07 09:57:30;;;;;;;7.25;4.63;;;19.00;99.90;;;;;;4975017;28;20226;-74
2023/10/07 10:00:38;;;;;;;11.48;4.10;;;18.80;99.90;;;;;;4993547;28;20175;-74
2023/10/07 10:03:12;;;;;;;12.20;4.50;;;19.10;99.90;;;;;;4993993;28;20167;-74
2023/10/07 10:05:56;;;;;;;9.40;4.50;;;19.30;99.90;;;;;;4993920;28;20175;-74
2023/10/07 10:08:55;;;;;;;11.80;4.57;;;19.40;99.90;;;;;;4992329;28;20689;-74
2023/10/07 10:11:44;;;;;;;10.95;5.13;;;19.80;99.90;;;;;;4993719;28;20175;-74
2023/10/07 10:16:51;;;;;;;8.20;4.22;;;19.80;99.90;;;;;;4993839;28;20329;-74
2023/10/07 10:19:44;;;;;;;8.63;4.50;;;;;;;;;;4993720;28;20188;-74
2023/10/07 10:22:12;;;;;;;11.00;4.00;;;20.80;99.90;;;;;;4993595;28;20230;-74
2023/10/07 10:24:43;;;;;;;9.70;3.80;;;20.40;99.90;;;;;;4993532;28;20614;-74
2023/10/07 10:27:10;;;;;;;8.07;3.85;;;21.00;99.90;;;;;;4993423;28;20242;-74
2023/10/07 10:29:52;;;;;;;6.93;3.72;;;20.80;99.90;;;;;;4992398;28;20219;-74
2023/10/07 10:32:33;;;;;;;9.45;4.03;;;20.50;99.90;;;;;;4993412;28;20258;-74
2023/10/07 10:35:02;;;;;;;12.57;3.97;;;20.70;99.90;;;;;;4993281;28;20171;-74
2023/10/07 10:37:30;;;;;;;13.63;4.47;;;21.30;99.90;;;;;;4993521;28;20202;-74
2023/10/07 10:39:57;;;;;;;10.68;4.05;;;21.30;99.90;;;;;;4993523;28;20238;-75
2023/10/07 10:42:24;;;;;;;10.70;4.47;;;21.30;99.90;;;;;;4993418;28;20175;-74
2023/10/07 10:44:52;;;;;;;10.73;3.83;;;21.80;99.90;;;;;;4993051;28;20172;-73
2023/10/07 10:47:18;;;;;;;10.25;4.55;;;22.00;99.90;;;;;;4993022;28;20233;-73
2023/10/07 10:49:45;;;;;;;13.38;4.55;;;21.80;99.90;;;;;;4993449;28;20206;-74
2023/10/07 10:52:12;;;;;;;11.43;4.10;;;22.10;99.90;;;;;;4992856;28;20171;-73
2023/10/07 10:54:39;;;;;;;7.88;3.90;;;22.00;36.40;;;;;;4992775;28;20560;-74
2023/10/07 10:57:08;;;;;;;6.95;3.78;;;23.10;1.00;;;;;;5009671;28;20585;-73
2023/10/07 10:59:36;;;;;;;11.93;4.72;;;23.20;99.90;;;;;;5012049;28;20313;-73
2023/10/07 11:02:05;;;;;;;12.60;4.10;;;23.80;1.00;;;;;;5012119;28;20536;-73
2023/10/07 11:04:31;;;;;;;10.32;4.10;;;25.30;1.00;;;;;;5012163;28;20191;-74
2023/10/07 11:07:00;;;;;;;10.05;4.22;;;25.20;1.00;;;;;;5012502;28;20186;-74
2023/10/07 11:09:26;;;;;;;11.63;4.40;;;26.30;99.90;;;;;;5012351;28;20221;-74
2023/10/07 11:11:55;;;;;;;11.05;3.97;;;26.30;99.90;;;;;;5012373;28;20182;-74
2023/10/07 11:14:22;;;;;;;8.60;3.80;;;27.00;1.00;;;;;;5012222;28;20181;-74
2023/10/07 11:16:51;;;;;;;7.70;3.80;;;26.70;1.00;;;;;;5012349;28;20174;-74
2023/10/07 11:19:19;;;;;;;12.48;4.10;;;26.80;1.00;;;;;;5012771;28;20174;-76
2023/10/07 11:21:48;;;;;;;9.10;3.58;;;27.90;1.00;;;;;;5012601;28;20167;-76
2023/10/07 11:24:30;;;;;;;9.52;4.18;;;28.60;99.90;;;;;;5012412;28;20162;-74
2023/10/07 11:26:59;;;;;;;10.75;3.90;;;28.00;99.90;;;;;;5012025;28;20187;-74
2023/10/07 11:29:32;;;;;;;8.80;3.45;;;28.40;1.00;;;;;;5011603;28;20250;-73
2023/10/07 11:31:59;;;;;;;9.95;5.07;;;28.00;1.00;;;;;;5011970;28;20197;-76
2023/10/07 11:34:33;;;;;;;9.23;3.50;;;29.10;1.00;;;;;;5011992;28;20182;-76
2023/10/07 11:37:27;;;;;;;11.45;3.90;;;27.80;99.90;;;;;;5011804;28;20240;-76
2023/10/07 11:39:53;;;;;;;7.05;3.15;;;;;;;;;;5009550;28;20189;-75
2023/10/07 11:42:21;;;;;;;8.02;3.50;;;27.80;99.90;;;;;;5010805;28;20171;-75
2023/10/07 11:44:54;;;;;;;11.32;3.92;;;27.80;99.90;;;;;;5011486;28;20170;-74
2023/10/07 11:47:20;;;;;;;11.30;4.18;;;27.80;99.90;;;;;;4993834;28;20178;-75
2023/10/07 11:49:47;;;;;;;10.73;3.85;;;28.10;99.90;;;;;;5011456;28;20182;-75
2023/10/07 11:52:14;;;;;;;7.97;3.33;;;28.00;87.90;;;;;;5011581;28;20173;-75
2023/10/07 11:54:40;;;;;;;12.70;3.65;;;27.90;1.00;;;;;;5011522;28;20182;-76
2023/10/07 11:57:06;;;;;;;10.38;3.53;;;27.60;1.00;;;;;;5011248;28;20218;-75
2023/10/07 11:59:35;;;;;;;6.78;3.25;;;28.50;1.00;;;;;;5011527;28;20182;-73
2023/10/07 12:02:09;;;;;;;7.82;3.50;;;27.40;1.00;;;;;;5011434;28;20179;-76
2023/10/07 12:04:39;;;;;;;8.93;3.33;;;27.10;1.00;;;;;;5011431;28;20170;-76
2023/10/07 12:07:08;;;;;;;11.75;3.92;;;27.60;1.00;;;;;;4993582;28;20189;-76
2023/10/07 12:09:34;;;;;;;9.60;3.83;;;27.40;1.00;;;;;;5011561;28;20217;-76
2023/10/07 12:12:02;;;;;;;14.05;3.88;;;29.40;1.00;;;;;;5011338;28;20189;-75
2023/10/07 12:14:28;;;;;;;9.50;3.58;;;27.60;1.00;;;;;;5011449;28;20206;-76
2023/10/07 12:16:55;;;;;;;10.73;3.10;;;26.70;1.00;;;;;;5011026;28;20181;-75
2023/10/07 12:19:21;;;;;;;8.40;3.60;;;27.40;1.00;;;;;;5011171;28;20260;-74
2023/10/07 12:21:50;;;;;;;7.78;3.70;;;27.80;1.00;;;;;;4993488;28;20179;-77
2023/10/07 12:24:18;;;;;;;6.72;3.25;;;26.00;99.90;;;;;;5011163;28;20224;-76
2023/10/07 12:26:50;;;;;;;11.90;3.60;;;26.90;99.90;;;;;;5011206;28;20229;-76
2023/10/07 12:29:17;;;;;;;10.50;3.95;;;27.40;99.90;;;;;;5011002;28;20225;-76
2023/10/07 12:31:44;;;;;;;9.48;4.32;;;26.10;99.90;;;;;;5011037;28;20261;-75
2023/10/07 12:34:13;;;;;;;7.57;3.25;;;26.90;99.90;;;;;;5011046;28;20178;-75
2023/10/07 12:36:39;;;;;;;12.27;3.88;;;27.10;99.90;;;;;;5011075;28;20775;-76
2023/10/07 12:39:11;;;;;;;10.40;3.97;;;27.10;99.90;;;;;;5011023;28;20667;-76
2023/10/07 12:41:43;;;;;;;10.40;3.40;;;26.80;99.90;;;;;;5011024;28;20174;-77
2023/10/07 12:44:10;;;;;;;10.88;4.03;;;26.80;99.90;;;;;;5011139;28;20170;-76
2023/10/07 12:46:37;;;;;;;11.40;4.28;;;26.80;99.90;;;;;;5010886;28;20171;-76
2023/10/07 12:49:10;;;;;;;11.63;3.85;;;27.20;99.90;;;;;;5010866;28;20203;-75
2023/10/07 12:51:41;;;;;;;14.00;3.78;;;27.70;99.90;;;;;;5011001;28;20233;-73
2023/10/07 12:54:09;;;;;;;10.35;4.03;;;;;;;;;;5014040;28;20189;-76
2023/10/07 12:56:36;;;;;;;10.27;3.88;;;28.10;99.90;;;;;;5014615;28;20222;-76
2023/10/07 12:59:07;;;;;;;10.18;3.80;;;;;;;;;;5014649;28;20166;-75
2023/10/07 13:01:33;;;;;;;8.20;3.70;;;28.40;1.00;;;;;;5014789;28;20617;-75
2023/10/07 13:03:59;;;;;;;10.80;3.58;;;26.50;99.90;;;;;;5014744;28;20166;-76
2023/10/07 13:06:25;;;;;;;7.32;3.72;;;26.40;1.00;;;;;;5013250;28;20209;-75
2023/10/07 13:08:53;;;;;;;7.93;3.17;;;25.20;1.00;;;;;;4996790;28;20218;-76
2023/10/07 13:11:20;;;;;;;11.77;3.85;;;24.60;99.90;;;;;;5014346;28;20193;-75
2023/10/07 13:13:46;;;;;;;9.13;3.92;;;24.10;99.90;;;;;;5014235;28;20187;-75
2023/10/07 13:16:13;;;;;;;9.65;4.43;;;23.70;1.00;;;;;;5014430;28;20756;-75
2023/10/07 13:18:44;;;;;;;10.57;4.05;;;24.40;1.00;;;;;;5014243;28;20818;-75
2023/10/07 13:21:13;;;;;;;9.82;3.83;;;;;;;;;;5014148;28;20265;-75
2023/10/07 13:23:47;;;;;;;13.15;3.92;;;23.90;1.00;;;;;;5013989;28;20257;-75
2023/10/07 13:26:14;;;;;;;12.10;4.68;;;;;;;;;;5013921;28;20212;-75
2023/10/07 13:28:41;;;;;;;12.00;3.80;;;;;;;;;;5013736;28;20210;-76
2023/10/07 13:31:08;;;;;;;10.25;4.03;;;23.90;1.00;;;;;;5014226;28;20179;-75
2023/10/07 13:33:37;;;;;;;9.90;4.03;;;23.80;99.90;;;;;;5013766;28;20261;-75
2023/10/07 13:36:07;;;;;;;13.52;3.95;;;23.50;41.20;;;;;;5014074;28;20175;-75
2023/10/07 13:38:33;;;;;;;10.52;4.18;;;;;;;;;;5013825;28;20174;-75
2023/10/07 13:41:03;;;;;;;14.07;4.40;;;23.40;1.00;;;;;;5013981;28;20171;-75
2023/10/07 13:43:29;;;;;;;10.48;3.78;;;;;;;;;;5013963;28;20630;-76
2023/10/07 13:46:01;;;;;;;10.68;4.10;;;24.30;1.00;;;;;;5014014;28;20185;-75
2023/10/07 13:48:27;;;;;;;15.55;4.00;;;24.70;71.80;;;;;;5013744;28;20245;-76
2023/10/07 13:51:00;;;;;;;9.20;3.83;;;24.80;1.00;;;;;;5013768;28;20171;-75
2023/10/07 13:53:50;;;;;;;8.98;3.60;;;25.60;99.90;;;;;;5013567;28;20179;-75
2023/10/07 13:56:23;;;;;;;10.60;3.90;;;26.60;1.00;;;;;;5013024;28;20696;-75
2023/10/07 13:58:49;;;;;;;9.40;3.75;;;;;;;;;;5013568;28;20205;-76
2023/10/07 14:01:15;;;;;;;9.35;3.67;;;;;;;;;;5012223;28;20686;-76
2023/10/07 14:03:41;;;;;;;6.95;3.47;;;;;;;;;;5013277;28;20174;-76
2023/10/07 14:06:07;;;;;;;13.13;3.80;;;27.20;1.00;;;;;;5012950;28;20166;-75
2023/10/07 14:08:42;;;;;;;11.52;3.90;;;27.20;99.90;;;;;;5013422;28;20217;-76
2023/10/07 14:11:09;;;;;;;9.27;3.63;;;;;;;;;;5013563;28;20170;-76
2023/10/07 14:13:36;;;;;;;8.50;3.40;;;27.50;99.90;;;;;;5013596;28;20170;-76
2023/10/07 14:16:09;;;;;;;11.98;4.18;;;27.60;1.00;;;;;;5013093;28;20642;-75
2023/10/07 14:18:37;;;;;;;8.30;3.38;;;;;;;;;;5013407;28;20249;-76
2023/10/07 14:21:07;;;;;;;12.05;3.80;;;27.60;99.90;;;;;;5013012;28;20649;-75